sensor_id;sensor_type;location;lat;lon;timestamp;temperature;humidity
2721;DHT22;1368;49.484;11.112;2023-03-21T00:01:13;11.00;99.90
2721;DHT22;1368;49.484;11.112;2023-03-21T00:03:39;11.00;99.90
2721;DHT22;1368;49.484;11.112;2023-03-21T00:06:09;11.00;99.90
2721;DHT22;1368;49.484;11.112;2023-03-21T00:08:36;11.00;99.90
2721;DHT22;1368;49.484;11.112;2023-03-21T00:11:04;11.10;99.90
2721;DHT22;1368;49.484;11.112;2023-03-21T00:13:30;11.10;99.90
2721;DHT22;1368;49.484;11.112;2023-03-21T00:16:15;11.50;99.90
2721;DHT22;1368;49.484;11.112;2023-03-21T00:18:43;11.10;99.90
2721;DHT22;1368;49.484;11.112;2023-03-21T00:21:16;11.10;99.90
2721;DHT22;1368;49.484;11.112;2023-03-21T00:23:43;11.10;99.90
2721;DHT22;1368;49.484;11.112;2023-03-21T00:26:08;11.10;99.90
2721;DHT22;1368;49.484;11.112;2023-03-21T00:28:39;11.10;99.90
2721;DHT22;1368;49.484;11.112;2023-03-21T00:31:05;11.00;99.90
2721;DHT22;1368;49.484;11.112;2023-03-21T00:33:31;11.00;99.90
2721;DHT22;1368;49.484;11.112;2023-03-21T00:35:57;11.10;99.90
2721;DHT22;1368;49.484;11.112;2023-03-21T00:38:23;11.10;99.90
2721;DHT22;1368;49.484;11.112;2023-03-21T00:40:49;11.60;99.90
2721;DHT22;1368;49.484;11.112;2023-03-21T00:43:15;11.10;99.90
2721;DHT22;1368;49.484;11.112;2023-03-21T00:45:45;11.10;99.90
2721;DHT22;1368;49.484;11.112;2023-03-21T00:48:12;11.00;99.90
2721;DHT22;1368;49.484;11.112;2023-03-21T00:50:38;11.00;99.90
2721;DHT22;1368;49.484;11.112;2023-03-21T00:53:05;11.00;99.90
2721;DHT22;1368;49.484;11.112;2023-03-21T00:55:31;10.90;99.90
2721;DHT22;1368;49.484;11.112;2023-03-21T00:57:57;10.90;99.90
2721;DHT22;1368;49.484;11.112;2023-03-21T01:00:23;10.90;99.90
2721;DHT22;1368;49.484;11.112;2023-03-21T01:02:49;10.90;99.90
2721;DHT22;1368;49.484;11.112;2023-03-21T01:05:31;10.80;99.90
2721;DHT22;1368;49.484;11.112;2023-03-21T01:08:16;10.90;99.90
2721;DHT22;1368;49.484;11.112;2023-03-21T01:10:45;10.80;99.90
2721;DHT22;1368;49.484;11.112;2023-03-21T01:13:14;10.80;99.90
2721;DHT22;1368;49.484;11.112;2023-03-21T01:15:58;10.80;99.90
2721;DHT22;1368;49.484;11.112;2023-03-21T01:18:26;10.80;99.90
2721;DHT22;1368;49.484;11.112;2023-03-21T01:20:54;10.80;99.90
2721;DHT22;1368;49.484;11.112;2023-03-21T01:23:20;10.80;99.90
2721;DHT22;1368;49.484;11.112;2023-03-21T01:25:47;10.80;99.90
2721;DHT22;1368;49.484;11.112;2023-03-21T01:28:13;10.70;99.90
2721;DHT22;1368;49.484;11.112;2023-03-21T01:30:38;10.60;99.90
2721;DHT22;1368;49.484;11.112;2023-03-21T01:33:08;10.60;99.90
2721;DHT22;1368;49.484;11.112;2023-03-21T01:35:35;11.00;99.90
2721;DHT22;1368;49.484;11.112;2023-03-21T01:38:01;10.60;99.90
2721;DHT22;1368;49.484;11.112;2023-03-21T01:40:27;10.50;99.90
2721;DHT22;1368;49.484;11.112;2023-03-21T01:42:53;10.40;99.90
2721;DHT22;1368;49.484;11.112;2023-03-21T01:48:22;10.40;99.90
2721;DHT22;1368;49.484;11.112;2023-03-21T01:50:48;10.40;99.90
2721;DHT22;1368;49.484;11.112;2023-03-21T01:53:15;10.40;99.90
2721;DHT22;1368;49.484;11.112;2023-03-21T01:55:41;10.40;99.90
2721;DHT22;1368;49.484;11.112;2023-03-21T01:58:09;10.30;99.90
2721;DHT22;1368;49.484;11.112;2023-03-21T02:00:36;10.40;99.90
2721;DHT22;1368;49.484;11.112;2023-03-21T02:03:05;10.30;99.90
2721;DHT22;1368;49.484;11.112;2023-03-21T02:05:52;10.30;99.90
2721;DHT22;1368;49.484;11.112;2023-03-21T02:08:20;10.30;99.90
2721;DHT22;1368;49.484;11.112;2023-03-21T02:10:48;10.20;99.90
2721;DHT22;1368;49.484;11.112;2023-03-21T02:13:14;10.20;99.90
2721;DHT22;1368;49.484;11.112;2023-03-21T02:15:43;10.20;99.90
2721;DHT22;1368;49.484;11.112;2023-03-21T02:18:16;10.20;99.90
2721;DHT22;1368;49.484;11.112;2023-03-21T02:20:54;10.10;99.90
2721;DHT22;1368;49.484;11.112;2023-03-21T02:23:41;10.00;99.90
2721;DHT22;1368;49.484;11.112;2023-03-21T02:26:26;10.00;99.90
2721;DHT22;1368;49.484;11.112;2023-03-21T02:37:50;9.80;99.90
2721;DHT22;1368;49.484;11.112;2023-03-21T02:40:51;9.70;99.90
2721;DHT22;1368;49.484;11.112;2023-03-21T02:43:24;9.60;99.90
2721;DHT22;1368;49.484;11.112;2023-03-21T02:48:44;9.50;99.90
2721;DHT22;1368;49.484;11.112;2023-03-21T02:51:12;9.50;99.90
2721;DHT22;1368;49.484;11.112;2023-03-21T02:53:42;9.40;99.90
2721;DHT22;1368;49.484;11.112;2023-03-21T02:56:10;9.30;99.90
2721;DHT22;1368;49.484;11.112;2023-03-21T02:58:37;9.30;99.90
2721;DHT22;1368;49.484;11.112;2023-03-21T03:01:04;9.40;99.90
2721;DHT22;1368;49.484;11.112;2023-03-21T03:03:31;9.50;99.90
2721;DHT22;1368;49.484;11.112;2023-03-21T03:05:58;9.50;99.90
2721;DHT22;1368;49.484;11.112;2023-03-21T03:11:35;9.50;99.90
2721;DHT22;1368;49.484;11.112;2023-03-21T03:19:26;9.50;99.90
2721;DHT22;1368;49.484;11.112;2023-03-21T03:22:00;9.50;99.90
2721;DHT22;1368;49.484;11.112;2023-03-21T03:24:33;9.50;99.90
2721;DHT22;1368;49.484;11.112;2023-03-21T03:27:15;9.50;99.90
2721;DHT22;1368;49.484;11.112;2023-03-21T03:29:43;9.50;99.90
2721;DHT22;1368;49.484;11.112;2023-03-21T03:32:17;9.40;99.90
2721;DHT22;1368;49.484;11.112;2023-03-21T03:34:48;9.40;99.90
2721;DHT22;1368;49.484;11.112;2023-03-21T03:37:19;9.50;99.90
2721;DHT22;1368;49.484;11.112;2023-03-21T03:39:56;9.40;99.90
2721;DHT22;1368;49.484;11.112;2023-03-21T03:42:28;9.40;99.90
2721;DHT22;1368;49.484;11.112;2023-03-21T03:44:56;9.40;99.90
2721;DHT22;1368;49.484;11.112;2023-03-21T03:47:36;9.30;99.90
2721;DHT22;1368;49.484;11.112;2023-03-21T03:52:51;9.40;99.90
2721;DHT22;1368;49.484;11.112;2023-03-21T03:55:18;9.50;99.90
2721;DHT22;1368;49.484;11.112;2023-03-21T03:57:46;9.50;99.90
2721;DHT22;1368;49.484;11.112;2023-03-21T04:00:12;9.60;99.90
2721;DHT22;1368;49.484;11.112;2023-03-21T04:02:38;9.60;99.90
2721;DHT22;1368;49.484;11.112;2023-03-21T04:05:04;9.50;99.90
2721;DHT22;1368;49.484;11.112;2023-03-21T04:07:30;9.40;99.90
2721;DHT22;1368;49.484;11.112;2023-03-21T04:09:56;9.40;99.90
2721;DHT22;1368;49.484;11.112;2023-03-21T04:12:22;9.80;99.90
2721;DHT22;1368;49.484;11.112;2023-03-21T04:14:48;9.40;99.90
2721;DHT22;1368;49.484;11.112;2023-03-21T04:17:14;9.40;99.90
2721;DHT22;1368;49.484;11.112;2023-03-21T04:19:40;9.40;99.90
2721;DHT22;1368;49.484;11.112;2023-03-21T04:22:05;9.10;99.90
2721;DHT22;1368;49.484;11.112;2023-03-21T04:24:31;9.10;99.90
2721;DHT22;1368;49.484;11.112;2023-03-21T04:26:59;9.00;99.90
2721;DHT22;1368;49.484;11.112;2023-03-21T04:29:25;8.90;99.90
2721;DHT22;1368;49.484;11.112;2023-03-21T04:31:54;9.10;99.90
2721;DHT22;1368;49.484;11.112;2023-03-21T04:34:20;8.60;99.90
2721;DHT22;1368;49.484;11.112;2023-03-21T04:36:48;8.50;99.90
2721;DHT22;1368;49.484;11.112;2023-03-21T04:39:15;8.30;99.90
2721;DHT22;1368;49.484;11.112;2023-03-21T04:41:43;8.20;99.90
2721;DHT22;1368;49.484;11.112;2023-03-21T04:44:10;8.20;99.90
2721;DHT22;1368;49.484;11.112;2023-03-21T04:46:36;8.30;99.90
2721;DHT22;1368;49.484;11.112;2023-03-21T04:49:02;8.20;99.90
2721;DHT22;1368;49.484;11.112;2023-03-21T04:51:28;8.00;99.90
2721;DHT22;1368;49.484;11.112;2023-03-21T04:53:54;8.20;99.90
2721;DHT22;1368;49.484;11.112;2023-03-21T04:56:24;8.30;99.90
2721;DHT22;1368;49.484;11.112;2023-03-21T04:58:57;8.50;99.90
2721;DHT22;1368;49.484;11.112;2023-03-21T05:01:22;8.60;99.90
2721;DHT22;1368;49.484;11.112;2023-03-21T05:03:48;8.70;99.90
2721;DHT22;1368;49.484;11.112;2023-03-21T05:06:13;8.70;99.90
2721;DHT22;1368;49.484;11.112;2023-03-21T05:08:40;8.70;99.90
2721;DHT22;1368;49.484;11.112;2023-03-21T05:11:05;8.70;99.90
2721;DHT22;1368;49.484;11.112;2023-03-21T05:13:31;8.80;99.90
2721;DHT22;1368;49.484;11.112;2023-03-21T05:15:57;8.70;99.90
2721;DHT22;1368;49.484;11.112;2023-03-21T05:18:22;8.70;99.90
2721;DHT22;1368;49.484;11.112;2023-03-21T05:20:50;8.70;99.90
2721;DHT22;1368;49.484;11.112;2023-03-21T05:23:22;8.90;99.90
2721;DHT22;1368;49.484;11.112;2023-03-21T05:25:49;8.90;99.90
2721;DHT22;1368;49.484;11.112;2023-03-21T05:28:15;8.90;99.90
2721;DHT22;1368;49.484;11.112;2023-03-21T05:30:45;9.10;99.90
2721;DHT22;1368;49.484;11.112;2023-03-21T05:33:11;9.10;99.90
2721;DHT22;1368;49.484;11.112;2023-03-21T05:35:38;9.00;99.90
2721;DHT22;1368;49.484;11.112;2023-03-21T05:38:04;9.10;99.90
2721;DHT22;1368;49.484;11.112;2023-03-21T05:40:30;9.10;99.90
2721;DHT22;1368;49.484;11.112;2023-03-21T05:42:55;9.20;99.90
2721;DHT22;1368;49.484;11.112;2023-03-21T05:45:21;9.30;99.90
2721;DHT22;1368;49.484;11.112;2023-03-21T05:47:46;9.20;99.90
2721;DHT22;1368;49.484;11.112;2023-03-21T05:50:12;9.20;99.90
2721;DHT22;1368;49.484;11.112;2023-03-21T05:52:39;9.50;99.90
2721;DHT22;1368;49.484;11.112;2023-03-21T05:55:05;9.60;99.90
2721;DHT22;1368;49.484;11.112;2023-03-21T05:57:31;9.70;99.90
2721;DHT22;1368;49.484;11.112;2023-03-21T05:59:59;9.90;99.90
2721;DHT22;1368;49.484;11.112;2023-03-21T06:02:25;9.90;99.90
2721;DHT22;1368;49.484;11.112;2023-03-21T06:04:51;9.50;99.90
2721;DHT22;1368;49.484;11.112;2023-03-21T06:07:16;9.40;99.90
2721;DHT22;1368;49.484;11.112;2023-03-21T06:09:42;9.50;99.90
2721;DHT22;1368;49.484;11.112;2023-03-21T06:12:07;9.70;99.90
2721;DHT22;1368;49.484;11.112;2023-03-21T06:14:33;9.60;99.90
2721;DHT22;1368;49.484;11.112;2023-03-21T06:16:58;9.70;99.90
2721;DHT22;1368;49.484;11.112;2023-03-21T06:19:24;9.90;99.90
2721;DHT22;1368;49.484;11.112;2023-03-21T06:21:50;10.00;99.90
2721;DHT22;1368;49.484;11.112;2023-03-21T06:24:16;10.20;99.90
2721;DHT22;1368;49.484;11.112;2023-03-21T06:26:43;10.50;99.90
2721;DHT22;1368;49.484;11.112;2023-03-21T06:29:09;10.90;99.90
2721;DHT22;1368;49.484;11.112;2023-03-21T06:31:34;11.00;99.90
2721;DHT22;1368;49.484;11.112;2023-03-21T06:34:00;11.20;99.90
2721;DHT22;1368;49.484;11.112;2023-03-21T06:36:25;11.20;99.90
2721;DHT22;1368;49.484;11.112;2023-03-21T06:38:51;11.30;99.90
2721;DHT22;1368;49.484;11.112;2023-03-21T06:41:17;11.30;99.90
2721;DHT22;1368;49.484;11.112;2023-03-21T06:43:43;11.10;99.90
2721;DHT22;1368;49.484;11.112;2023-03-21T06:46:09;11.00;99.90
2721;DHT22;1368;49.484;11.112;2023-03-21T06:48:35;11.10;99.90
2721;DHT22;1368;49.484;11.112;2023-03-21T06:51:02;11.20;99.90
2721;DHT22;1368;49.484;11.112;2023-03-21T06:53:29;11.50;99.90
2721;DHT22;1368;49.484;11.112;2023-03-21T06:55:56;11.80;99.90
2721;DHT22;1368;49.484;11.112;2023-03-21T06:58:22;12.10;99.90
2721;DHT22;1368;49.484;11.112;2023-03-21T07:00:47;12.40;99.90
2721;DHT22;1368;49.484;11.112;2023-03-21T07:03:14;12.80;99.90
2721;DHT22;1368;49.484;11.112;2023-03-21T07:05:40;13.30;99.90
2721;DHT22;1368;49.484;11.112;2023-03-21T07:08:07;13.00;99.90
2721;DHT22;1368;49.484;11.112;2023-03-21T07:10:39;13.30;99.90
2721;DHT22;1368;49.484;11.112;2023-03-21T07:13:05;13.60;99.90
2721;DHT22;1368;49.484;11.112;2023-03-21T07:15:31;14.00;99.90
2721;DHT22;1368;49.484;11.112;2023-03-21T07:17:57;14.00;99.90
2721;DHT22;1368;49.484;11.112;2023-03-21T07:20:23;14.50;99.90
2721;DHT22;1368;49.484;11.112;2023-03-21T07:22:48;15.10;99.90
2721;DHT22;1368;49.484;11.112;2023-03-21T07:25:14;15.80;99.90
2721;DHT22;1368;49.484;11.112;2023-03-21T07:27:41;16.30;99.90
2721;DHT22;1368;49.484;11.112;2023-03-21T07:30:07;16.60;99.90
2721;DHT22;1368;49.484;11.112;2023-03-21T07:32:34;16.40;99.90
2721;DHT22;1368;49.484;11.112;2023-03-21T07:35:02;16.30;99.90
2721;DHT22;1368;49.484;11.112;2023-03-21T07:37:28;16.40;99.90
2721;DHT22;1368;49.484;11.112;2023-03-21T07:39:54;16.90;99.90
2721;DHT22;1368;49.484;11.112;2023-03-21T07:42:19;16.50;99.90
2721;DHT22;1368;49.484;11.112;2023-03-21T07:44:45;17.00;99.90
2721;DHT22;1368;49.484;11.112;2023-03-21T07:47:11;16.60;99.90
2721;DHT22;1368;49.484;11.112;2023-03-21T07:49:36;16.10;99.90
2721;DHT22;1368;49.484;11.112;2023-03-21T07:52:03;16.30;99.90
2721;DHT22;1368;49.484;11.112;2023-03-21T07:54:29;16.00;99.90
2721;DHT22;1368;49.484;11.112;2023-03-21T07:56:55;16.40;99.90
2721;DHT22;1368;49.484;11.112;2023-03-21T07:59:21;16.30;99.90
2721;DHT22;1368;49.484;11.112;2023-03-21T08:01:46;16.30;99.90
2721;DHT22;1368;49.484;11.112;2023-03-21T08:04:12;16.50;99.90
2721;DHT22;1368;49.484;11.112;2023-03-21T08:06:38;17.20;99.70
2721;DHT22;1368;49.484;11.112;2023-03-21T08:09:05;19.00;97.80
2721;DHT22;1368;49.484;11.112;2023-03-21T08:11:31;19.00;97.60
2721;DHT22;1368;49.484;11.112;2023-03-21T08:13:57;19.50;96.60
2721;DHT22;1368;49.484;11.112;2023-03-21T08:16:23;20.30;94.60
2721;DHT22;1368;49.484;11.112;2023-03-21T08:18:49;20.50;94.30
2721;DHT22;1368;49.484;11.112;2023-03-21T08:21:14;21.20;92.30
2721;DHT22;1368;49.484;11.112;2023-03-21T08:23:40;21.40;91.50
2721;DHT22;1368;49.484;11.112;2023-03-21T08:26:06;21.70;90.00
2721;DHT22;1368;49.484;11.112;2023-03-21T08:28:32;21.80;89.70
2721;DHT22;1368;49.484;11.112;2023-03-21T08:30:58;22.00;90.10
2721;DHT22;1368;49.484;11.112;2023-03-21T08:33:23;22.60;82.80
2721;DHT22;1368;49.484;11.112;2023-03-21T08:35:49;22.60;83.60
2721;DHT22;1368;49.484;11.112;2023-03-21T08:38:14;22.20;85.20
2721;DHT22;1368;49.484;11.112;2023-03-21T08:40:41;22.20;86.00
2721;DHT22;1368;49.484;11.112;2023-03-21T08:43:06;22.50;86.20
2721;DHT22;1368;49.484;11.112;2023-03-21T08:45:32;22.90;83.30
2721;DHT22;1368;49.484;11.112;2023-03-21T08:47:58;23.30;84.10
2721;DHT22;1368;49.484;11.112;2023-03-21T08:50:25;23.40;82.70
2721;DHT22;1368;49.484;11.112;2023-03-21T08:52:53;23.30;77.60
2721;DHT22;1368;49.484;11.112;2023-03-21T08:55:19;23.40;76.10
2721;DHT22;1368;49.484;11.112;2023-03-21T08:57:45;22.20;76.50
2721;DHT22;1368;49.484;11.112;2023-03-21T09:00:13;22.10;78.30
2721;DHT22;1368;49.484;11.112;2023-03-21T09:02:42;21.80;78.00
2721;DHT22;1368;49.484;11.112;2023-03-21T09:05:09;21.60;75.20
2721;DHT22;1368;49.484;11.112;2023-03-21T09:07:37;21.30;77.10
2721;DHT22;1368;49.484;11.112;2023-03-21T09:10:03;21.30;79.00
2721;DHT22;1368;49.484;11.112;2023-03-21T09:12:30;21.70;77.20
2721;DHT22;1368;49.484;11.112;2023-03-21T09:14:55;22.40;78.90
2721;DHT22;1368;49.484;11.112;2023-03-21T09:17:21;22.40;76.20
2721;DHT22;1368;49.484;11.112;2023-03-21T09:19:47;22.30;75.00
2721;DHT22;1368;49.484;11.112;2023-03-21T09:22:14;22.70;76.20
2721;DHT22;1368;49.484;11.112;2023-03-21T09:24:44;22.80;73.90
2721;DHT22;1368;49.484;11.112;2023-03-21T09:27:15;23.10;74.20
2721;DHT22;1368;49.484;11.112;2023-03-21T09:29:49;23.00;73.00
2721;DHT22;1368;49.484;11.112;2023-03-21T09:32:15;22.70;73.90
2721;DHT22;1368;49.484;11.112;2023-03-21T09:34:42;22.80;72.70
2721;DHT22;1368;49.484;11.112;2023-03-21T09:37:09;23.10;73.60
2721;DHT22;1368;49.484;11.112;2023-03-21T09:39:40;22.40;73.20
2721;DHT22;1368;49.484;11.112;2023-03-21T09:42:32;22.60;74.80
2721;DHT22;1368;49.484;11.112;2023-03-21T09:47:51;23.30;75.50
2721;DHT22;1368;49.484;11.112;2023-03-21T09:50:18;23.00;70.90
2721;DHT22;1368;49.484;11.112;2023-03-21T09:55:32;22.30;73.50
2721;DHT22;1368;49.484;11.112;2023-03-21T10:00:53;23.10;71.50
2721;DHT22;1368;49.484;11.112;2023-03-21T10:03:23;23.70;72.30
2721;DHT22;1368;49.484;11.112;2023-03-21T10:05:55;23.70;70.90
2721;DHT22;1368;49.484;11.112;2023-03-21T10:08:29;22.80;72.00
2721;DHT22;1368;49.484;11.112;2023-03-21T10:11:00;21.00;72.40
2721;DHT22;1368;49.484;11.112;2023-03-21T10:13:39;19.90;75.40
2721;DHT22;1368;49.484;11.112;2023-03-21T10:16:14;20.30;77.60
2721;DHT22;1368;49.484;11.112;2023-03-21T10:18:41;21.70;77.40
2721;DHT22;1368;49.484;11.112;2023-03-21T10:21:11;22.30;75.50
2721;DHT22;1368;49.484;11.112;2023-03-21T10:23:42;22.90;75.70
2721;DHT22;1368;49.484;11.112;2023-03-21T10:26:07;23.30;70.90
2721;DHT22;1368;49.484;11.112;2023-03-21T10:28:36;22.90;73.80
2721;DHT22;1368;49.484;11.112;2023-03-21T10:31:05;22.60;74.90
2721;DHT22;1368;49.484;11.112;2023-03-21T10:33:37;22.80;73.50
2721;DHT22;1368;49.484;11.112;2023-03-21T10:36:15;22.90;71.90
2721;DHT22;1368;49.484;11.112;2023-03-21T10:38:51;23.40;72.70
2721;DHT22;1368;49.484;11.112;2023-03-21T10:41:19;22.90;72.80
2721;DHT22;1368;49.484;11.112;2023-03-21T10:43:46;22.40;70.70
2721;DHT22;1368;49.484;11.112;2023-03-21T10:46:20;21.90;69.90
2721;DHT22;1368;49.484;11.112;2023-03-21T10:48:50;21.60;73.00
2721;DHT22;1368;49.484;11.112;2023-03-21T10:51:20;21.80;71.20
2721;DHT22;1368;49.484;11.112;2023-03-21T10:53:57;21.40;73.50
2721;DHT22;1368;49.484;11.112;2023-03-21T10:56:33;21.10;75.40
2721;DHT22;1368;49.484;11.112;2023-03-21T10:59:00;21.50;74.40
2721;DHT22;1368;49.484;11.112;2023-03-21T11:01:40;22.20;74.60
2721;DHT22;1368;49.484;11.112;2023-03-21T11:04:19;22.20;73.20
2721;DHT22;1368;49.484;11.112;2023-03-21T11:07:02;21.90;74.30
2721;DHT22;1368;49.484;11.112;2023-03-21T11:09:44;21.90;73.60
2721;DHT22;1368;49.484;11.112;2023-03-21T11:12:27;21.60;72.40
2721;DHT22;1368;49.484;11.112;2023-03-21T11:14:53;21.40;72.50
2721;DHT22;1368;49.484;11.112;2023-03-21T11:17:20;21.40;76.10
2721;DHT22;1368;49.484;11.112;2023-03-21T11:19:52;21.00;74.20
2721;DHT22;1368;49.484;11.112;2023-03-21T11:22:24;21.40;72.90
2721;DHT22;1368;49.484;11.112;2023-03-21T11:24:57;21.50;73.60
2721;DHT22;1368;49.484;11.112;2023-03-21T11:27:26;21.30;72.70
2721;DHT22;1368;49.484;11.112;2023-03-21T11:29:54;21.20;72.40
2721;DHT22;1368;49.484;11.112;2023-03-21T11:32:41;21.30;73.10
2721;DHT22;1368;49.484;11.112;2023-03-21T11:35:17;20.80;71.30
2721;DHT22;1368;49.484;11.112;2023-03-21T11:37:55;21.00;70.80
2721;DHT22;1368;49.484;11.112;2023-03-21T11:40:23;20.90;72.40
2721;DHT22;1368;49.484;11.112;2023-03-21T11:47:48;20.60;73.60
2721;DHT22;1368;49.484;11.112;2023-03-21T11:50:33;20.50;75.70
2721;DHT22;1368;49.484;11.112;2023-03-21T11:53:39;20.80;76.30
2721;DHT22;1368;49.484;11.112;2023-03-21T11:59:16;20.20;77.20
2721;DHT22;1368;49.484;11.112;2023-03-21T12:04:44;20.10;77.00
2721;DHT22;1368;49.484;11.112;2023-03-21T12:18:58;19.70;80.30
2721;DHT22;1368;49.484;11.112;2023-03-21T12:27:33;19.20;84.10
2721;DHT22;1368;49.484;11.112;2023-03-21T12:30:20;19.10;82.20
2721;DHT22;1368;49.484;11.112;2023-03-21T12:33:11;18.40;84.70
2721;DHT22;1368;49.484;11.112;2023-03-21T12:36:05;18.20;86.00
2721;DHT22;1368;49.484;11.112;2023-03-21T12:39:02;18.70;85.20
2721;DHT22;1368;49.484;11.112;2023-03-21T12:41:36;19.10;84.90
2721;DHT22;1368;49.484;11.112;2023-03-21T12:44:14;19.20;84.60
2721;DHT22;1368;49.484;11.112;2023-03-21T12:47:02;19.50;87.10
2721;DHT22;1368;49.484;11.112;2023-03-21T12:49:47;19.30;84.40
2721;DHT22;1368;49.484;11.112;2023-03-21T12:52:24;20.20;84.10
2721;DHT22;1368;49.484;11.112;2023-03-21T12:55:00;19.60;85.00
2721;DHT22;1368;49.484;11.112;2023-03-21T12:57:41;19.10;85.20
2721;DHT22;1368;49.484;11.112;2023-03-21T13:00:16;19.30;85.70
2721;DHT22;1368;49.484;11.112;2023-03-21T13:02:50;19.40;84.70
2721;DHT22;1368;49.484;11.112;2023-03-21T13:05:34;19.50;82.90
2721;DHT22;1368;49.484;11.112;2023-03-21T13:08:08;19.40;82.40
2721;DHT22;1368;49.484;11.112;2023-03-21T13:10:34;19.40;84.40
2721;DHT22;1368;49.484;11.112;2023-03-21T13:18:51;19.20;84.90
2721;DHT22;1368;49.484;11.112;2023-03-21T13:31:55;19.50;85.40
2721;DHT22;1368;49.484;11.112;2023-03-21T13:34:24;19.10;86.00
2721;DHT22;1368;49.484;11.112;2023-03-21T13:36:50;19.50;85.00
2721;DHT22;1368;49.484;11.112;2023-03-21T13:39:20;19.50;88.00
2721;DHT22;1368;49.484;11.112;2023-03-21T13:41:49;19.50;85.30
2721;DHT22;1368;49.484;11.112;2023-03-21T13:47:03;19.40;87.00
2721;DHT22;1368;49.484;11.112;2023-03-21T13:49:35;19.50;88.00
2721;DHT22;1368;49.484;11.112;2023-03-21T13:52:24;19.80;86.90
2721;DHT22;1368;49.484;11.112;2023-03-21T13:54:52;19.60;84.90
2721;DHT22;1368;49.484;11.112;2023-03-21T14:03:05;19.10;89.60
2721;DHT22;1368;49.484;11.112;2023-03-21T14:05:32;19.40;88.60
2721;DHT22;1368;49.484;11.112;2023-03-21T14:08:08;19.70;88.30
2721;DHT22;1368;49.484;11.112;2023-03-21T14:10:43;19.90;89.50
2721;DHT22;1368;49.484;11.112;2023-03-21T14:13:14;20.40;86.50
2721;DHT22;1368;49.484;11.112;2023-03-21T14:15:45;20.10;86.10
2721;DHT22;1368;49.484;11.112;2023-03-21T14:18:16;20.20;84.60
2721;DHT22;1368;49.484;11.112;2023-03-21T14:20:43;20.30;85.00
2721;DHT22;1368;49.484;11.112;2023-03-21T14:23:14;21.00;85.70
2721;DHT22;1368;49.484;11.112;2023-03-21T14:25:40;20.20;84.40
2721;DHT22;1368;49.484;11.112;2023-03-21T14:28:20;19.80;86.50
2721;DHT22;1368;49.484;11.112;2023-03-21T14:30:51;20.10;87.20
2721;DHT22;1368;49.484;11.112;2023-03-21T14:33:26;20.30;85.80
2721;DHT22;1368;49.484;11.112;2023-03-21T14:35:54;20.20;84.90
2721;DHT22;1368;49.484;11.112;2023-03-21T14:38:26;20.60;86.40
2721;DHT22;1368;49.484;11.112;2023-03-21T14:40:54;20.30;85.40
2721;DHT22;1368;49.484;11.112;2023-03-21T14:43:21;19.90;84.40
2721;DHT22;1368;49.484;11.112;2023-03-21T14:45:49;20.00;86.10
2721;DHT22;1368;49.484;11.112;2023-03-21T14:48:17;20.10;85.70
2721;DHT22;1368;49.484;11.112;2023-03-21T14:53:24;19.50;86.80
2721;DHT22;1368;49.484;11.112;2023-03-21T14:58:30;19.10;85.90
2721;DHT22;1368;49.484;11.112;2023-03-21T15:01:00;19.30;88.00
2721;DHT22;1368;49.484;11.112;2023-03-21T15:03:28;19.50;86.40
2721;DHT22;1368;49.484;11.112;2023-03-21T15:05:55;19.80;87.70
2721;DHT22;1368;49.484;11.112;2023-03-21T15:08:24;19.70;87.60
2721;DHT22;1368;49.484;11.112;2023-03-21T15:11:11;19.90;86.90
2721;DHT22;1368;49.484;11.112;2023-03-21T15:13:45;20.40;86.80
2721;DHT22;1368;49.484;11.112;2023-03-21T15:16:14;20.30;86.40
2721;DHT22;1368;49.484;11.112;2023-03-21T15:18:40;20.10;84.60
2721;DHT22;1368;49.484;11.112;2023-03-21T15:21:13;19.80;86.70
2721;DHT22;1368;49.484;11.112;2023-03-21T15:23:43;20.00;87.40
2721;DHT22;1368;49.484;11.112;2023-03-21T15:26:21;20.80;86.70
2721;DHT22;1368;49.484;11.112;2023-03-21T15:28:50;20.90;86.40
2721;DHT22;1368;49.484;11.112;2023-03-21T15:31:22;20.00;85.60
2721;DHT22;1368;49.484;11.112;2023-03-21T15:33:51;19.80;87.90
2721;DHT22;1368;49.484;11.112;2023-03-21T15:36:24;19.60;86.60
2721;DHT22;1368;49.484;11.112;2023-03-21T15:38:50;19.60;88.20
2721;DHT22;1368;49.484;11.112;2023-03-21T15:43:53;19.50;87.00
2721;DHT22;1368;49.484;11.112;2023-03-21T15:46:50;19.10;88.50
2721;DHT22;1368;49.484;11.112;2023-03-21T15:49:28;19.40;88.80
2721;DHT22;1368;49.484;11.112;2023-03-21T15:54:50;19.00;89.50
2721;DHT22;1368;49.484;11.112;2023-03-21T15:57:25;18.90;89.40
2721;DHT22;1368;49.484;11.112;2023-03-21T16:00:30;19.10;89.40
2721;DHT22;1368;49.484;11.112;2023-03-21T16:03:09;19.40;89.20
2721;DHT22;1368;49.484;11.112;2023-03-21T16:05:38;19.40;88.60
2721;DHT22;1368;49.484;11.112;2023-03-21T16:08:17;19.30;89.70
2721;DHT22;1368;49.484;11.112;2023-03-21T16:10:44;19.20;90.10
2721;DHT22;1368;49.484;11.112;2023-03-21T16:13:10;19.50;89.90
2721;DHT22;1368;49.484;11.112;2023-03-21T16:15:38;18.30;90.80
2721;DHT22;1368;49.484;11.112;2023-03-21T16:18:05;18.70;91.80
2721;DHT22;1368;49.484;11.112;2023-03-21T16:20:34;18.60;92.40
2721;DHT22;1368;49.484;11.112;2023-03-21T16:23:01;17.50;91.90
2721;DHT22;1368;49.484;11.112;2023-03-21T16:25:28;17.50;93.30
2721;DHT22;1368;49.484;11.112;2023-03-21T16:27:54;17.50;93.70
2721;DHT22;1368;49.484;11.112;2023-03-21T16:30:21;18.20;93.10
2721;DHT22;1368;49.484;11.112;2023-03-21T16:32:47;17.90;92.80
2721;DHT22;1368;49.484;11.112;2023-03-21T16:35:15;17.80;93.20
2721;DHT22;1368;49.484;11.112;2023-03-21T16:37:41;17.50;93.00
2721;DHT22;1368;49.484;11.112;2023-03-21T16:40:28;17.10;93.90
2721;DHT22;1368;49.484;11.112;2023-03-21T16:42:54;17.30;94.20
2721;DHT22;1368;49.484;11.112;2023-03-21T16:45:20;17.20;93.70
2721;DHT22;1368;49.484;11.112;2023-03-21T16:47:47;17.00;94.40
2721;DHT22;1368;49.484;11.112;2023-03-21T16:50:22;16.90;94.50
2721;DHT22;1368;49.484;11.112;2023-03-21T16:52:49;17.30;94.90
2721;DHT22;1368;49.484;11.112;2023-03-21T16:55:15;16.90;94.70
2721;DHT22;1368;49.484;11.112;2023-03-21T16:57:41;16.70;95.00
2721;DHT22;1368;49.484;11.112;2023-03-21T17:00:07;16.60;95.20
2721;DHT22;1368;49.484;11.112;2023-03-21T17:02:37;16.70;95.80
2721;DHT22;1368;49.484;11.112;2023-03-21T17:05:03;16.70;95.50
2721;DHT22;1368;49.484;11.112;2023-03-21T17:07:28;16.60;95.40
2721;DHT22;1368;49.484;11.112;2023-03-21T17:09:54;16.60;96.10
2721;DHT22;1368;49.484;11.112;2023-03-21T17:12:20;16.50;96.50
2721;DHT22;1368;49.484;11.112;2023-03-21T17:14:45;16.20;97.40
2721;DHT22;1368;49.484;11.112;2023-03-21T17:17:12;16.40;98.30
2721;DHT22;1368;49.484;11.112;2023-03-21T17:19:39;16.80;99.10
2721;DHT22;1368;49.484;11.112;2023-03-21T17:22:05;16.80;99.80
2721;DHT22;1368;49.484;11.112;2023-03-21T17:24:31;16.20;99.90
2721;DHT22;1368;49.484;11.112;2023-03-21T17:26:58;15.90;99.90
2721;DHT22;1368;49.484;11.112;2023-03-21T17:29:24;15.60;99.90
2721;DHT22;1368;49.484;11.112;2023-03-21T17:31:50;15.70;99.90
2721;DHT22;1368;49.484;11.112;2023-03-21T17:34:17;15.80;99.90
2721;DHT22;1368;49.484;11.112;2023-03-21T17:36:44;15.90;99.90
2721;DHT22;1368;49.484;11.112;2023-03-21T17:39:18;15.50;99.90
2721;DHT22;1368;49.484;11.112;2023-03-21T17:41:44;15.40;99.90
2721;DHT22;1368;49.484;11.112;2023-03-21T17:44:09;15.30;99.90